メインページ
METAR-TAF:

METAR-TAF

空港 :

ジッダ, サウジアラビア

キング・アブドゥルアズィーズ国際空港

緯度: 21-42N, 経度: 039-11E, 海抜: 15m

現時点の気象観測

当レポートは33分前の01:00(UTC)に作成
の風 4kt
気温 21°C
湿度 73%
気圧 1012 hPa
視程10km以上
1,500メートル以下は雲なし、積乱雲なし

METAR: OEJN 180100Z 36004KT CAVOK 21/16 Q1012 NOSIG

時間: 04:33 (01:33 UTC)

予報

当レポートは2時間33分前の23:00(UTC)に作成
予報は18日の 00時(UTC)から 19日の 06時(UTC)まで有効
変向風 3kt
視程: 7000m
18日の 08時(UTC)から 18日の 10時(UTC)まで徐々に
北西の風 6kt、最大16ktの突風を伴う

TAF: OEJN 172300Z 1800/1906 VRB03KT 7000 NSC BECMG 1808/1810 32006G16KT

4,000以上の空港の気象観測と天気予報(METAR報とTAF報)

利用可能な観測所は地図上に黄色い丸と赤い丸で示す。

丸の上にカーソルを重ねると観測所名を参照できる。

次にクリックすると気象観測と天気予報を参照できる。

マップの切り替え:黒色「×」印の緑ボタンをクリックして拡大、「-」印の緑ボタンをクリックして縮小、緑色の三角印をクリックして隣りの地図に切り替え


METAR-TAF: